sensor_id;sensor_type;location;lat;lon;timestamp;P1;durP1;ratioP1;P2;durP2;ratioP2
64353;SDS011;50681;53.334;-6.536;2023-11-22T00:00:15;11.15;;;3.08;;
64353;SDS011;50681;53.334;-6.536;2023-11-22T00:02:41;28.52;;;6.65;;
64353;SDS011;50681;53.334;-6.536;2023-11-22T00:05:06;16.30;;;3.87;;
64353;SDS011;50681;53.334;-6.536;2023-11-22T00:07:32;20.80;;;9.47;;
64353;SDS011;50681;53.334;-6.536;2023-11-22T00:09:58;26.67;;;11.15;;
64353;SDS011;50681;53.334;-6.536;2023-11-22T00:12:23;25.03;;;13.97;;
64353;SDS011;50681;53.334;-6.536;2023-11-22T00:14:50;14.38;;;5.97;;
64353;SDS011;50681;53.334;-6.536;2023-11-22T00:17:16;17.80;;;5.95;;
64353;SDS011;50681;53.334;-6.536;2023-11-22T00:19:44;18.33;;;6.38;;
64353;SDS011;50681;53.334;-6.536;2023-11-22T00:22:10;13.13;;;3.77;;
64353;SDS011;50681;53.334;-6.536;2023-11-22T00:24:39;18.98;;;3.47;;
64353;SDS011;50681;53.334;-6.536;2023-11-22T00:27:27;13.40;;;3.95;;
64353;SDS011;50681;53.334;-6.536;2023-11-22T00:29:54;19.33;;;8.50;;
64353;SDS011;50681;53.334;-6.536;2023-11-22T00:32:20;15.13;;;7.90;;
64353;SDS011;50681;53.334;-6.536;2023-11-22T00:34:45;17.33;;;4.87;;
64353;SDS011;50681;53.334;-6.536;2023-11-22T00:37:12;13.90;;;4.78;;
64353;SDS011;50681;53.334;-6.536;2023-11-22T00:39:37;18.33;;;6.23;;
64353;SDS011;50681;53.334;-6.536;2023-11-22T00:42:03;17.57;;;4.03;;
64353;SDS011;50681;53.334;-6.536;2023-11-22T00:44:29;10.98;;;4.40;;
64353;SDS011;50681;53.334;-6.536;2023-11-22T00:46:55;12.27;;;4.90;;
64353;SDS011;50681;53.334;-6.536;2023-11-22T00:49:22;12.73;;;3.50;;
64353;SDS011;50681;53.334;-6.536;2023-11-22T00:51:47;10.30;;;2.87;;
64353;SDS011;50681;53.334;-6.536;2023-11-22T00:54:13;20.90;;;4.80;;
64353;SDS011;50681;53.334;-6.536;2023-11-22T00:56:38;17.13;;;4.07;;
64353;SDS011;50681;53.334;-6.536;2023-11-22T00:59:04;17.67;;;4.13;;
64353;SDS011;50681;53.334;-6.536;2023-11-22T01:01:29;18.77;;;3.47;;
64353;SDS011;50681;53.334;-6.536;2023-11-22T01:03:56;13.80;;;3.45;;
64353;SDS011;50681;53.334;-6.536;2023-11-22T01:06:22;26.77;;;4.97;;
64353;SDS011;50681;53.334;-6.536;2023-11-22T01:08:48;14.47;;;6.40;;
64353;SDS011;50681;53.334;-6.536;2023-11-22T01:11:13;12.30;;;4.17;;
64353;SDS011;50681;53.334;-6.536;2023-11-22T01:13:39;9.50;;;3.73;;
64353;SDS011;50681;53.334;-6.536;2023-11-22T01:16:11;9.50;;;3.80;;
64353;SDS011;50681;53.334;-6.536;2023-11-22T01:18:38;12.18;;;4.13;;
64353;SDS011;50681;53.334;-6.536;2023-11-22T01:21:04;15.02;;;4.00;;
64353;SDS011;50681;53.334;-6.536;2023-11-22T01:23:30;10.50;;;3.20;;
64353;SDS011;50681;53.334;-6.536;2023-11-22T01:26:00;13.48;;;3.85;;
64353;SDS011;50681;53.334;-6.536;2023-11-22T01:28:26;11.55;;;3.60;;
64353;SDS011;50681;53.334;-6.536;2023-11-22T01:30:52;8.45;;;3.13;;
64353;SDS011;50681;53.334;-6.536;2023-11-22T01:33:19;16.13;;;3.67;;
64353;SDS011;50681;53.334;-6.536;2023-11-22T01:35:47;10.73;;;3.67;;
64353;SDS011;50681;53.334;-6.536;2023-11-22T01:38:16;5.88;;;2.17;;
64353;SDS011;50681;53.334;-6.536;2023-11-22T01:40:45;12.87;;;3.93;;
64353;SDS011;50681;53.334;-6.536;2023-11-22T01:43:14;14.68;;;3.40;;
64353;SDS011;50681;53.334;-6.536;2023-11-22T01:45:42;9.23;;;3.70;;
64353;SDS011;50681;53.334;-6.536;2023-11-22T01:48:08;12.47;;;3.37;;
64353;SDS011;50681;53.334;-6.536;2023-11-22T01:50:36;8.18;;;3.45;;
64353;SDS011;50681;53.334;-6.536;2023-11-22T01:53:08;12.07;;;3.38;;
64353;SDS011;50681;53.334;-6.536;2023-11-22T01:55:35;8.43;;;3.20;;
64353;SDS011;50681;53.334;-6.536;2023-11-22T01:58:01;14.13;;;3.55;;
64353;SDS011;50681;53.334;-6.536;2023-11-22T02:00:30;9.20;;;3.53;;
64353;SDS011;50681;53.334;-6.536;2023-11-22T02:03:00;11.88;;;3.53;;
64353;SDS011;50681;53.334;-6.536;2023-11-22T02:05:26;8.30;;;3.63;;
64353;SDS011;50681;53.334;-6.536;2023-11-22T02:07:51;11.13;;;3.73;;
64353;SDS011;50681;53.334;-6.536;2023-11-22T02:10:17;7.80;;;3.47;;
64353;SDS011;50681;53.334;-6.536;2023-11-22T02:12:42;9.90;;;3.27;;
64353;SDS011;50681;53.334;-6.536;2023-11-22T02:15:08;11.67;;;3.43;;
64353;SDS011;50681;53.334;-6.536;2023-11-22T02:17:34;10.85;;;3.17;;
64353;SDS011;50681;53.334;-6.536;2023-11-22T02:20:01;8.03;;;3.07;;
64353;SDS011;50681;53.334;-6.536;2023-11-22T02:22:26;9.40;;;2.92;;
64353;SDS011;50681;53.334;-6.536;2023-11-22T02:24:51;4.90;;;2.73;;
64353;SDS011;50681;53.334;-6.536;2023-11-22T02:27:17;8.73;;;2.80;;
64353;SDS011;50681;53.334;-6.536;2023-11-22T02:29:44;6.68;;;2.50;;
64353;SDS011;50681;53.334;-6.536;2023-11-22T02:32:10;15.25;;;3.90;;
64353;SDS011;50681;53.334;-6.536;2023-11-22T02:34:35;7.57;;;2.87;;
64353;SDS011;50681;53.334;-6.536;2023-11-22T02:37:01;6.63;;;2.63;;
64353;SDS011;50681;53.334;-6.536;2023-11-22T02:39:28;6.30;;;2.60;;
64353;SDS011;50681;53.334;-6.536;2023-11-22T02:42:05;9.73;;;2.95;;
64353;SDS011;50681;53.334;-6.536;2023-11-22T02:44:30;10.70;;;3.30;;
64353;SDS011;50681;53.334;-6.536;2023-11-22T02:46:55;9.17;;;2.80;;
64353;SDS011;50681;53.334;-6.536;2023-11-22T02:49:22;7.80;;;3.08;;
64353;SDS011;50681;53.334;-6.536;2023-11-22T02:51:48;9.57;;;2.93;;
64353;SDS011;50681;53.334;-6.536;2023-11-22T02:54:13;10.97;;;3.00;;
64353;SDS011;50681;53.334;-6.536;2023-11-22T02:56:39;8.67;;;2.67;;
64353;SDS011;50681;53.334;-6.536;2023-11-22T02:59:04;9.70;;;3.17;;
64353;SDS011;50681;53.334;-6.536;2023-11-22T03:01:31;11.15;;;3.40;;
64353;SDS011;50681;53.334;-6.536;2023-11-22T03:03:56;7.70;;;3.63;;
64353;SDS011;50681;53.334;-6.536;2023-11-22T03:06:21;11.17;;;4.00;;
64353;SDS011;50681;53.334;-6.536;2023-11-22T03:08:47;9.90;;;3.13;;
64353;SDS011;50681;53.334;-6.536;2023-11-22T03:11:14;9.93;;;3.25;;
64353;SDS011;50681;53.334;-6.536;2023-11-22T03:13:39;7.57;;;3.63;;
64353;SDS011;50681;53.334;-6.536;2023-11-22T03:16:04;8.83;;;3.57;;
64353;SDS011;50681;53.334;-6.536;2023-11-22T03:18:30;7.13;;;3.20;;
64353;SDS011;50681;53.334;-6.536;2023-11-22T03:20:56;7.72;;;3.03;;
64353;SDS011;50681;53.334;-6.536;2023-11-22T03:23:22;6.57;;;2.33;;
64353;SDS011;50681;53.334;-6.536;2023-11-22T03:25:47;10.47;;;3.70;;
64353;SDS011;50681;53.334;-6.536;2023-11-22T03:28:13;8.63;;;2.90;;
64353;SDS011;50681;53.334;-6.536;2023-11-22T03:30:38;6.13;;;2.50;;
64353;SDS011;50681;53.334;-6.536;2023-11-22T03:33:05;6.32;;;2.80;;
64353;SDS011;50681;53.334;-6.536;2023-11-22T03:35:30;7.90;;;2.67;;
64353;SDS011;50681;53.334;-6.536;2023-11-22T03:37:56;10.63;;;2.83;;
64353;SDS011;50681;53.334;-6.536;2023-11-22T03:40:21;7.63;;;3.10;;
64353;SDS011;50681;53.334;-6.536;2023-11-22T03:42:47;6.17;;;2.20;;
64353;SDS011;50681;53.334;-6.536;2023-11-22T03:45:12;6.10;;;3.10;;
64353;SDS011;50681;53.334;-6.536;2023-11-22T03:47:39;10.25;;;3.58;;
64353;SDS011;50681;53.334;-6.536;2023-11-22T03:50:05;9.10;;;2.97;;
64353;SDS011;50681;53.334;-6.536;2023-11-22T03:54:56;8.23;;;3.17;;
64353;SDS011;50681;53.334;-6.536;2023-11-22T03:57:23;8.13;;;3.60;;
64353;SDS011;50681;53.334;-6.536;2023-11-22T03:59:48;5.37;;;2.83;;
64353;SDS011;50681;53.334;-6.536;2023-11-22T04:02:14;7.10;;;2.63;;
64353;SDS011;50681;53.334;-6.536;2023-11-22T04:04:39;13.50;;;3.03;;
64353;SDS011;50681;53.334;-6.536;2023-11-22T04:09:31;8.20;;;2.33;;
64353;SDS011;50681;53.334;-6.536;2023-11-22T04:11:57;10.77;;;3.30;;
64353;SDS011;50681;53.334;-6.536;2023-11-22T04:14:23;4.00;;;2.33;;
64353;SDS011;50681;53.334;-6.536;2023-11-22T04:16:48;6.87;;;2.93;;
64353;SDS011;50681;53.334;-6.536;2023-11-22T04:19:14;8.17;;;2.93;;
64353;SDS011;50681;53.334;-6.536;2023-11-22T04:21:39;5.80;;;2.20;;
64353;SDS011;50681;53.334;-6.536;2023-11-22T04:24:05;3.90;;;2.20;;
64353;SDS011;50681;53.334;-6.536;2023-11-22T04:26:31;6.13;;;2.50;;
64353;SDS011;50681;53.334;-6.536;2023-11-22T04:28:56;7.80;;;2.50;;
64353;SDS011;50681;53.334;-6.536;2023-11-22T04:31:23;5.00;;;2.55;;
64353;SDS011;50681;53.334;-6.536;2023-11-22T04:33:49;4.90;;;2.23;;
64353;SDS011;50681;53.334;-6.536;2023-11-22T04:36:15;4.70;;;2.22;;
64353;SDS011;50681;53.334;-6.536;2023-11-22T04:41:06;5.53;;;2.10;;
64353;SDS011;50681;53.334;-6.536;2023-11-22T04:43:32;4.22;;;1.90;;
64353;SDS011;50681;53.334;-6.536;2023-11-22T04:45:58;7.93;;;2.47;;
64353;SDS011;50681;53.334;-6.536;2023-11-22T04:48:23;4.17;;;2.07;;
64353;SDS011;50681;53.334;-6.536;2023-11-22T04:50:49;6.80;;;1.90;;
64353;SDS011;50681;53.334;-6.536;2023-11-22T04:53:15;6.53;;;2.25;;
64353;SDS011;50681;53.334;-6.536;2023-11-22T04:55:41;7.43;;;2.33;;
64353;SDS011;50681;53.334;-6.536;2023-11-22T04:58:07;4.60;;;2.00;;
64353;SDS011;50681;53.334;-6.536;2023-11-22T05:00:32;7.10;;;2.30;;
64353;SDS011;50681;53.334;-6.536;2023-11-22T05:02:57;8.13;;;2.17;;
64353;SDS011;50681;53.334;-6.536;2023-11-22T05:05:23;6.43;;;1.83;;
64353;SDS011;50681;53.334;-6.536;2023-11-22T05:07:48;6.17;;;1.83;;
64353;SDS011;50681;53.334;-6.536;2023-11-22T05:10:14;2.83;;;1.67;;
64353;SDS011;50681;53.334;-6.536;2023-11-22T05:12:39;7.00;;;2.07;;
64353;SDS011;50681;53.334;-6.536;2023-11-22T05:15:05;6.15;;;1.85;;
64353;SDS011;50681;53.334;-6.536;2023-11-22T05:17:33;5.32;;;1.73;;
64353;SDS011;50681;53.334;-6.536;2023-11-22T05:20:01;4.35;;;1.75;;
64353;SDS011;50681;53.334;-6.536;2023-11-22T05:22:34;3.70;;;1.50;;
64353;SDS011;50681;53.334;-6.536;2023-11-22T05:25:00;6.15;;;1.60;;
64353;SDS011;50681;53.334;-6.536;2023-11-22T05:27:27;6.17;;;1.57;;
64353;SDS011;50681;53.334;-6.536;2023-11-22T05:29:53;3.63;;;1.70;;
64353;SDS011;50681;53.334;-6.536;2023-11-22T05:32:19;2.47;;;1.53;;
64353;SDS011;50681;53.334;-6.536;2023-11-22T05:34:44;4.90;;;2.00;;
64353;SDS011;50681;53.334;-6.536;2023-11-22T05:37:10;2.90;;;1.40;;
64353;SDS011;50681;53.334;-6.536;2023-11-22T05:39:35;4.57;;;1.60;;
64353;SDS011;50681;53.334;-6.536;2023-11-22T05:42:01;4.03;;;1.60;;
64353;SDS011;50681;53.334;-6.536;2023-11-22T05:44:28;4.60;;;1.83;;
64353;SDS011;50681;53.334;-6.536;2023-11-22T05:46:53;6.97;;;1.83;;
64353;SDS011;50681;53.334;-6.536;2023-11-22T05:49:19;3.08;;;1.75;;
64353;SDS011;50681;53.334;-6.536;2023-11-22T05:51:44;6.80;;;1.50;;
64353;SDS011;50681;53.334;-6.536;2023-11-22T05:54:10;6.43;;;1.60;;
64353;SDS011;50681;53.334;-6.536;2023-11-22T05:56:37;5.40;;;1.50;;
64353;SDS011;50681;53.334;-6.536;2023-11-22T05:59:03;6.67;;;1.60;;
64353;SDS011;50681;53.334;-6.536;2023-11-22T06:01:28;7.20;;;1.50;;
64353;SDS011;50681;53.334;-6.536;2023-11-22T06:03:55;5.35;;;1.40;;
64353;SDS011;50681;53.334;-6.536;2023-11-22T06:06:21;5.17;;;1.63;;
64353;SDS011;50681;53.334;-6.536;2023-11-22T06:08:47;8.07;;;1.83;;
64353;SDS011;50681;53.334;-6.536;2023-11-22T06:11:13;4.15;;;1.60;;
64353;SDS011;50681;53.334;-6.536;2023-11-22T06:13:40;7.35;;;1.83;;
64353;SDS011;50681;53.334;-6.536;2023-11-22T06:16:05;4.25;;;1.55;;
64353;SDS011;50681;53.334;-6.536;2023-11-22T06:18:31;3.70;;;1.37;;
64353;SDS011;50681;53.334;-6.536;2023-11-22T06:20:58;4.88;;;1.73;;
64353;SDS011;50681;53.334;-6.536;2023-11-22T06:23:23;5.43;;;1.53;;
64353;SDS011;50681;53.334;-6.536;2023-11-22T06:25:48;7.07;;;1.53;;
64353;SDS011;50681;53.334;-6.536;2023-11-22T06:28:14;10.68;;;1.77;;
64353;SDS011;50681;53.334;-6.536;2023-11-22T06:30:40;7.25;;;1.80;;
64353;SDS011;50681;53.334;-6.536;2023-11-22T06:33:06;8.63;;;1.70;;
64353;SDS011;50681;53.334;-6.536;2023-11-22T06:35:32;6.18;;;1.63;;
64353;SDS011;50681;53.334;-6.536;2023-11-22T06:37:58;7.95;;;1.67;;
64353;SDS011;50681;53.334;-6.536;2023-11-22T06:40:23;16.13;;;2.07;;
64353;SDS011;50681;53.334;-6.536;2023-11-22T06:42:48;10.10;;;1.77;;
64353;SDS011;50681;53.334;-6.536;2023-11-22T06:45:14;14.27;;;2.10;;
64353;SDS011;50681;53.334;-6.536;2023-11-22T06:47:39;7.73;;;2.10;;
64353;SDS011;50681;53.334;-6.536;2023-11-22T06:50:05;12.95;;;1.80;;
64353;SDS011;50681;53.334;-6.536;2023-11-22T06:52:37;9.60;;;2.33;;
64353;SDS011;50681;53.334;-6.536;2023-11-22T06:55:06;9.05;;;2.00;;
64353;SDS011;50681;53.334;-6.536;2023-11-22T06:57:33;9.48;;;1.95;;
64353;SDS011;50681;53.334;-6.536;2023-11-22T06:59:59;6.43;;;1.40;;
64353;SDS011;50681;53.334;-6.536;2023-11-22T07:02:26;10.88;;;1.73;;
64353;SDS011;50681;53.334;-6.536;2023-11-22T07:04:51;11.40;;;1.93;;
64353;SDS011;50681;53.334;-6.536;2023-11-22T07:07:17;7.53;;;1.60;;
64353;SDS011;50681;53.334;-6.536;2023-11-22T07:09:42;16.33;;;2.57;;
64353;SDS011;50681;53.334;-6.536;2023-11-22T07:12:09;11.52;;;1.80;;
64353;SDS011;50681;53.334;-6.536;2023-11-22T07:14:35;11.88;;;2.17;;
64353;SDS011;50681;53.334;-6.536;2023-11-22T07:17:01;9.98;;;2.00;;
64353;SDS011;50681;53.334;-6.536;2023-11-22T07:19:27;9.90;;;1.98;;
64353;SDS011;50681;53.334;-6.536;2023-11-22T07:21:53;14.63;;;2.77;;
64353;SDS011;50681;53.334;-6.536;2023-11-22T07:24:19;10.73;;;2.15;;
64353;SDS011;50681;53.334;-6.536;2023-11-22T07:26:44;9.80;;;2.70;;
64353;SDS011;50681;53.334;-6.536;2023-11-22T07:29:10;12.57;;;2.53;;
64353;SDS011;50681;53.334;-6.536;2023-11-22T07:34:02;18.90;;;2.67;;
64353;SDS011;50681;53.334;-6.536;2023-11-22T07:36:28;14.37;;;2.50;;
64353;SDS011;50681;53.334;-6.536;2023-11-22T07:38:53;9.57;;;1.80;;
64353;SDS011;50681;53.334;-6.536;2023-11-22T07:41:19;10.77;;;3.00;;
64353;SDS011;50681;53.334;-6.536;2023-11-22T07:43:46;15.70;;;2.53;;
64353;SDS011;50681;53.334;-6.536;2023-11-22T07:46:12;17.35;;;2.28;;
64353;SDS011;50681;53.334;-6.536;2023-11-22T07:48:41;17.88;;;3.20;;
64353;SDS011;50681;53.334;-6.536;2023-11-22T07:51:07;17.27;;;2.30;;
64353;SDS011;50681;53.334;-6.536;2023-11-22T07:53:34;11.38;;;2.20;;
64353;SDS011;50681;53.334;-6.536;2023-11-22T07:56:00;18.10;;;2.20;;
64353;SDS011;50681;53.334;-6.536;2023-11-22T07:58:29;14.25;;;2.30;;
64353;SDS011;50681;53.334;-6.536;2023-11-22T08:00:56;14.65;;;2.58;;
64353;SDS011;50681;53.334;-6.536;2023-11-22T08:03:22;17.85;;;2.85;;
64353;SDS011;50681;53.334;-6.536;2023-11-22T08:05:50;15.88;;;2.67;;
64353;SDS011;50681;53.334;-6.536;2023-11-22T08:08:20;17.27;;;2.42;;
64353;SDS011;50681;53.334;-6.536;2023-11-22T08:10:50;19.48;;;3.60;;
64353;SDS011;50681;53.334;-6.536;2023-11-22T08:13:18;11.60;;;2.60;;
64353;SDS011;50681;53.334;-6.536;2023-11-22T08:15:45;10.60;;;2.50;;
64353;SDS011;50681;53.334;-6.536;2023-11-22T08:20:37;15.60;;;2.97;;
64353;SDS011;50681;53.334;-6.536;2023-11-22T08:23:02;10.60;;;3.60;;
64353;SDS011;50681;53.334;-6.536;2023-11-22T08:25:28;14.23;;;3.03;;
64353;SDS011;50681;53.334;-6.536;2023-11-22T08:27:54;10.85;;;2.80;;
64353;SDS011;50681;53.334;-6.536;2023-11-22T08:30:19;15.50;;;3.13;;
64353;SDS011;50681;53.334;-6.536;2023-11-22T08:32:45;12.23;;;2.97;;
64353;SDS011;50681;53.334;-6.536;2023-11-22T08:35:19;9.25;;;2.83;;
64353;SDS011;50681;53.334;-6.536;2023-11-22T08:37:48;16.95;;;2.70;;
64353;SDS011;50681;53.334;-6.536;2023-11-22T08:40:15;17.77;;;3.17;;
64353;SDS011;50681;53.334;-6.536;2023-11-22T08:42:43;15.15;;;3.22;;
64353;SDS011;50681;53.334;-6.536;2023-11-22T08:45:08;13.83;;;3.53;;
64353;SDS011;50681;53.334;-6.536;2023-11-22T08:47:36;17.65;;;3.33;;
64353;SDS011;50681;53.334;-6.536;2023-11-22T08:50:07;18.27;;;4.15;;
64353;SDS011;50681;53.334;-6.536;2023-11-22T08:52:37;18.15;;;3.67;;
64353;SDS011;50681;53.334;-6.536;2023-11-22T08:55:04;20.17;;;4.35;;
64353;SDS011;50681;53.334;-6.536;2023-11-22T08:57:32;23.45;;;3.83;;
64353;SDS011;50681;53.334;-6.536;2023-11-22T09:00:00;12.07;;;3.13;;
64353;SDS011;50681;53.334;-6.536;2023-11-22T09:02:31;8.30;;;2.35;;
64353;SDS011;50681;53.334;-6.536;2023-11-22T09:04:57;17.83;;;2.30;;
64353;SDS011;50681;53.334;-6.536;2023-11-22T09:07:23;5.67;;;2.07;;
64353;SDS011;50681;53.334;-6.536;2023-11-22T09:09:49;11.20;;;2.25;;
64353;SDS011;50681;53.334;-6.536;2023-11-22T09:12:16;10.15;;;2.00;;
64353;SDS011;50681;53.334;-6.536;2023-11-22T09:14:44;9.05;;;1.60;;
64353;SDS011;50681;53.334;-6.536;2023-11-22T09:17:10;8.30;;;1.90;;
64353;SDS011;50681;53.334;-6.536;2023-11-22T09:19:38;4.67;;;1.70;;
64353;SDS011;50681;53.334;-6.536;2023-11-22T09:22:03;8.30;;;1.65;;
64353;SDS011;50681;53.334;-6.536;2023-11-22T09:24:31;8.40;;;1.67;;
64353;SDS011;50681;53.334;-6.536;2023-11-22T09:26:57;5.78;;;1.35;;
64353;SDS011;50681;53.334;-6.536;2023-11-22T09:29:22;3.03;;;1.40;;
64353;SDS011;50681;53.334;-6.536;2023-11-22T09:31:48;4.50;;;1.90;;
64353;SDS011;50681;53.334;-6.536;2023-11-22T09:34:17;8.40;;;2.15;;
64353;SDS011;50681;53.334;-6.536;2023-11-22T09:36:42;6.97;;;1.80;;
64353;SDS011;50681;53.334;-6.536;2023-11-22T09:39:09;6.95;;;1.83;;
64353;SDS011;50681;53.334;-6.536;2023-11-22T09:41:37;7.53;;;2.17;;
64353;SDS011;50681;53.334;-6.536;2023-11-22T09:44:04;6.32;;;1.63;;
64353;SDS011;50681;53.334;-6.536;2023-11-22T09:46:30;5.20;;;2.17;;
64353;SDS011;50681;53.334;-6.536;2023-11-22T09:48:58;5.80;;;2.25;;
64353;SDS011;50681;53.334;-6.536;2023-11-22T09:51:30;7.63;;;1.88;;
64353;SDS011;50681;53.334;-6.536;2023-11-22T09:54:05;6.75;;;2.45;;
64353;SDS011;50681;53.334;-6.536;2023-11-22T09:56:34;6.60;;;1.73;;
64353;SDS011;50681;53.334;-6.536;2023-11-22T09:59:02;5.45;;;2.58;;
64353;SDS011;50681;53.334;-6.536;2023-11-22T10:01:29;7.80;;;2.40;;
64353;SDS011;50681;53.334;-6.536;2023-11-22T10:04:13;8.45;;;3.80;;
64353;SDS011;50681;53.334;-6.536;2023-11-22T10:06:39;9.53;;;4.20;;
64353;SDS011;50681;53.334;-6.536;2023-11-22T10:11:33;5.57;;;1.63;;
64353;SDS011;50681;53.334;-6.536;2023-11-22T10:14:01;6.93;;;1.80;;
64353;SDS011;50681;53.334;-6.536;2023-11-22T10:16:26;5.33;;;1.57;;
64353;SDS011;50681;53.334;-6.536;2023-11-22T10:18:52;3.77;;;1.50;;
64353;SDS011;50681;53.334;-6.536;2023-11-22T10:24:04;6.63;;;1.80;;
64353;SDS011;50681;53.334;-6.536;2023-11-22T10:26:34;7.90;;;1.90;;
64353;SDS011;50681;53.334;-6.536;2023-11-22T10:29:00;6.88;;;1.85;;
64353;SDS011;50681;53.334;-6.536;2023-11-22T10:31:27;9.27;;;2.00;;
64353;SDS011;50681;53.334;-6.536;2023-11-22T10:33:53;3.13;;;1.65;;
64353;SDS011;50681;53.334;-6.536;2023-11-22T10:36:20;4.65;;;2.45;;
64353;SDS011;50681;53.334;-6.536;2023-11-22T10:38:47;9.07;;;2.00;;
64353;SDS011;50681;53.334;-6.536;2023-11-22T10:43:39;10.13;;;2.72;;
64353;SDS011;50681;53.334;-6.536;2023-11-22T10:46:06;7.97;;;3.10;;
64353;SDS011;50681;53.334;-6.536;2023-11-22T10:48:35;4.18;;;2.15;;
64353;SDS011;50681;53.334;-6.536;2023-11-22T10:51:02;5.00;;;2.28;;
64353;SDS011;50681;53.334;-6.536;2023-11-22T10:53:35;7.50;;;2.25;;
64353;SDS011;50681;53.334;-6.536;2023-11-22T10:58:32;10.52;;;3.20;;
64353;SDS011;50681;53.334;-6.536;2023-11-22T11:00:59;8.57;;;3.88;;
64353;SDS011;50681;53.334;-6.536;2023-11-22T11:03:31;4.45;;;1.48;;
64353;SDS011;50681;53.334;-6.536;2023-11-22T11:06:04;7.38;;;1.90;;
64353;SDS011;50681;53.334;-6.536;2023-11-22T11:08:38;7.55;;;2.15;;
64353;SDS011;50681;53.334;-6.536;2023-11-22T11:11:04;5.10;;;2.17;;
64353;SDS011;50681;53.334;-6.536;2023-11-22T11:15:56;4.55;;;2.33;;
64353;SDS011;50681;53.334;-6.536;2023-11-22T11:18:22;9.98;;;4.55;;
64353;SDS011;50681;53.334;-6.536;2023-11-22T11:23:24;3.67;;;1.52;;
64353;SDS011;50681;53.334;-6.536;2023-11-22T11:25:56;6.18;;;1.30;;
64353;SDS011;50681;53.334;-6.536;2023-11-22T11:28:26;2.47;;;1.45;;
64353;SDS011;50681;53.334;-6.536;2023-11-22T11:31:06;6.38;;;1.73;;
64353;SDS011;50681;53.334;-6.536;2023-11-22T11:33:34;6.17;;;2.47;;
64353;SDS011;50681;53.334;-6.536;2023-11-22T11:36:25;4.88;;;1.98;;
64353;SDS011;50681;53.334;-6.536;2023-11-22T11:38:57;9.75;;;2.28;;
64353;SDS011;50681;53.334;-6.536;2023-11-22T11:41:28;6.65;;;2.20;;
64353;SDS011;50681;53.334;-6.536;2023-11-22T11:43:55;3.97;;;2.13;;
64353;SDS011;50681;53.334;-6.536;2023-11-22T11:48:54;3.25;;;1.45;;
64353;SDS011;50681;53.334;-6.536;2023-11-22T11:53:55;1.77;;;1.10;;
64353;SDS011;50681;53.334;-6.536;2023-11-22T11:56:34;5.90;;;1.85;;
64353;SDS011;50681;53.334;-6.536;2023-11-22T11:59:00;2.28;;;0.90;;
64353;SDS011;50681;53.334;-6.536;2023-11-22T12:01:39;3.05;;;1.00;;
64353;SDS011;50681;53.334;-6.536;2023-11-22T12:04:04;2.15;;;0.93;;
64353;SDS011;50681;53.334;-6.536;2023-11-22T12:06:30;4.13;;;1.00;;
64353;SDS011;50681;53.334;-6.536;2023-11-22T12:08:58;3.97;;;1.40;;
64353;SDS011;50681;53.334;-6.536;2023-11-22T12:11:23;5.13;;;1.33;;
64353;SDS011;50681;53.334;-6.536;2023-11-22T12:13:49;1.67;;;0.83;;
64353;SDS011;50681;53.334;-6.536;2023-11-22T12:16:17;3.92;;;1.33;;
64353;SDS011;50681;53.334;-6.536;2023-11-22T12:18:43;4.37;;;1.20;;
64353;SDS011;50681;53.334;-6.536;2023-11-22T12:21:10;2.30;;;1.20;;
64353;SDS011;50681;53.334;-6.536;2023-11-22T12:23:40;4.38;;;1.98;;
64353;SDS011;50681;53.334;-6.536;2023-11-22T12:28:36;9.35;;;2.45;;
64353;SDS011;50681;53.334;-6.536;2023-11-22T12:31:08;4.70;;;2.23;;
64353;SDS011;50681;53.334;-6.536;2023-11-22T12:33:37;4.88;;;1.65;;
64353;SDS011;50681;53.334;-6.536;2023-11-22T12:36:05;3.50;;;1.88;;
64353;SDS011;50681;53.334;-6.536;2023-11-22T12:40:57;4.88;;;2.35;;
64353;SDS011;50681;53.334;-6.536;2023-11-22T12:46:00;5.13;;;2.30;;
64353;SDS011;50681;53.334;-6.536;2023-11-22T12:48:26;4.80;;;2.75;;
64353;SDS011;50681;53.334;-6.536;2023-11-22T12:50:54;3.25;;;1.33;;
64353;SDS011;50681;53.334;-6.536;2023-11-22T12:53:21;5.18;;;1.42;;
64353;SDS011;50681;53.334;-6.536;2023-11-22T12:55:48;4.70;;;1.80;;
64353;SDS011;50681;53.334;-6.536;2023-11-22T12:58:15;2.70;;;1.40;;
64353;SDS011;50681;53.334;-6.536;2023-11-22T13:00:43;3.65;;;1.55;;
64353;SDS011;50681;53.334;-6.536;2023-11-22T13:03:09;12.23;;;6.75;;
64353;SDS011;50681;53.334;-6.536;2023-11-22T13:05:39;5.18;;;1.60;;
64353;SDS011;50681;53.334;-6.536;2023-11-22T13:08:07;6.45;;;1.70;;
64353;SDS011;50681;53.334;-6.536;2023-11-22T13:10:36;10.27;;;3.75;;
64353;SDS011;50681;53.334;-6.536;2023-11-22T13:13:01;4.40;;;1.88;;
64353;SDS011;50681;53.334;-6.536;2023-11-22T13:15:27;6.63;;;3.93;;
64353;SDS011;50681;53.334;-6.536;2023-11-22T13:17:53;9.00;;;2.83;;
64353;SDS011;50681;53.334;-6.536;2023-11-22T13:20:26;4.55;;;1.33;;
64353;SDS011;50681;53.334;-6.536;2023-11-22T13:22:53;4.05;;;1.63;;
64353;SDS011;50681;53.334;-6.536;2023-11-22T13:25:19;7.68;;;2.38;;
64353;SDS011;50681;53.334;-6.536;2023-11-22T13:27:46;7.10;;;2.63;;
64353;SDS011;50681;53.334;-6.536;2023-11-22T13:30:13;2.13;;;1.27;;
64353;SDS011;50681;53.334;-6.536;2023-11-22T13:32:39;3.53;;;1.83;;
64353;SDS011;50681;53.334;-6.536;2023-11-22T13:37:37;5.28;;;2.35;;
64353;SDS011;50681;53.334;-6.536;2023-11-22T13:40:06;10.07;;;1.88;;
64353;SDS011;50681;53.334;-6.536;2023-11-22T13:42:37;5.10;;;2.00;;
64353;SDS011;50681;53.334;-6.536;2023-11-22T13:45:02;4.85;;;1.70;;
64353;SDS011;50681;53.334;-6.536;2023-11-22T13:47:28;5.65;;;2.03;;
64353;SDS011;50681;53.334;-6.536;2023-11-22T13:49:54;6.47;;;2.08;;
64353;SDS011;50681;53.334;-6.536;2023-11-22T13:52:19;5.80;;;1.77;;
64353;SDS011;50681;53.334;-6.536;2023-11-22T13:54:45;7.47;;;2.60;;
64353;SDS011;50681;53.334;-6.536;2023-11-22T13:57:10;5.72;;;1.75;;
64353;SDS011;50681;53.334;-6.536;2023-11-22T13:59:36;5.57;;;1.70;;
64353;SDS011;50681;53.334;-6.536;2023-11-22T14:02:01;7.40;;;1.97;;
64353;SDS011;50681;53.334;-6.536;2023-11-22T14:04:27;2.30;;;1.10;;
64353;SDS011;50681;53.334;-6.536;2023-11-22T14:06:52;3.17;;;1.30;;
64353;SDS011;50681;53.334;-6.536;2023-11-22T14:09:17;9.67;;;1.83;;
64353;SDS011;50681;53.334;-6.536;2023-11-22T14:11:44;5.75;;;1.70;;
64353;SDS011;50681;53.334;-6.536;2023-11-22T14:14:10;2.87;;;1.60;;
64353;SDS011;50681;53.334;-6.536;2023-11-22T14:16:35;3.30;;;1.40;;
64353;SDS011;50681;53.334;-6.536;2023-11-22T14:19:03;3.20;;;1.27;;
64353;SDS011;50681;53.334;-6.536;2023-11-22T14:21:30;5.57;;;1.50;;
64353;SDS011;50681;53.334;-6.536;2023-11-22T14:23:57;3.15;;;1.23;;
64353;SDS011;50681;53.334;-6.536;2023-11-22T14:26:23;4.37;;;1.60;;
64353;SDS011;50681;53.334;-6.536;2023-11-22T14:28:48;3.93;;;1.50;;
64353;SDS011;50681;53.334;-6.536;2023-11-22T14:31:14;4.60;;;1.67;;
64353;SDS011;50681;53.334;-6.536;2023-11-22T14:33:40;5.93;;;1.97;;
64353;SDS011;50681;53.334;-6.536;2023-11-22T14:36:05;6.33;;;1.80;;
64353;SDS011;50681;53.334;-6.536;2023-11-22T14:38:32;4.28;;;2.08;;
64353;SDS011;50681;53.334;-6.536;2023-11-22T14:40:57;6.40;;;1.80;;
64353;SDS011;50681;53.334;-6.536;2023-11-22T14:43:23;4.57;;;1.50;;
64353;SDS011;50681;53.334;-6.536;2023-11-22T14:45:55;6.00;;;1.92;;
64353;SDS011;50681;53.334;-6.536;2023-11-22T14:48:21;5.30;;;1.70;;
64353;SDS011;50681;53.334;-6.536;2023-11-22T14:53:13;3.03;;;1.58;;
64353;SDS011;50681;53.334;-6.536;2023-11-22T14:55:38;3.53;;;1.37;;
64353;SDS011;50681;53.334;-6.536;2023-11-22T14:58:06;4.03;;;1.38;;
64353;SDS011;50681;53.334;-6.536;2023-11-22T15:00:31;3.90;;;2.33;;
64353;SDS011;50681;53.334;-6.536;2023-11-22T15:02:57;5.10;;;2.50;;
64353;SDS011;50681;53.334;-6.536;2023-11-22T15:05:22;6.33;;;2.33;;
64353;SDS011;50681;53.334;-6.536;2023-11-22T15:07:48;4.53;;;2.15;;
64353;SDS011;50681;53.334;-6.536;2023-11-22T15:10:19;5.32;;;2.40;;
64353;SDS011;50681;53.334;-6.536;2023-11-22T15:12:45;7.95;;;2.05;;